sensor_id;sensor_type;location;lat;lon;timestamp;P1;durP1;ratioP1;P2;durP2;ratioP2
20894;SDS011;10607;42.066;24.742;2024-02-14T00:01:15;0.70;;;0.70;;
20894;SDS011;10607;42.066;24.742;2024-02-14T00:03:40;1.20;;;0.90;;
20894;SDS011;10607;42.066;24.742;2024-02-14T00:06:06;3.93;;;0.90;;
20894;SDS011;10607;42.066;24.742;2024-02-14T00:08:31;0.90;;;0.90;;
20894;SDS011;10607;42.066;24.742;2024-02-14T00:10:56;1.10;;;0.87;;
20894;SDS011;10607;42.066;24.742;2024-02-14T00:13:22;0.73;;;0.73;;
20894;SDS011;10607;42.066;24.742;2024-02-14T00:15:47;0.60;;;0.60;;
20894;SDS011;10607;42.066;24.742;2024-02-14T00:18:13;1.23;;;0.87;;
20894;SDS011;10607;42.066;24.742;2024-02-14T00:20:38;0.80;;;0.80;;
20894;SDS011;10607;42.066;24.742;2024-02-14T00:23:06;0.90;;;0.90;;
20894;SDS011;10607;42.066;24.742;2024-02-14T00:25:31;1.10;;;0.97;;
20894;SDS011;10607;42.066;24.742;2024-02-14T00:27:57;1.03;;;1.00;;
20894;SDS011;10607;42.066;24.742;2024-02-14T00:30:25;1.00;;;1.00;;
20894;SDS011;10607;42.066;24.742;2024-02-14T00:32:51;0.90;;;0.90;;
20894;SDS011;10607;42.066;24.742;2024-02-14T00:35:16;0.73;;;0.73;;
20894;SDS011;10607;42.066;24.742;2024-02-14T00:37:41;0.90;;;0.90;;
20894;SDS011;10607;42.066;24.742;2024-02-14T00:40:06;1.03;;;0.93;;
20894;SDS011;10607;42.066;24.742;2024-02-14T00:42:32;2.83;;;0.90;;
20894;SDS011;10607;42.066;24.742;2024-02-14T00:44:57;0.80;;;0.80;;
20894;SDS011;10607;42.066;24.742;2024-02-14T00:47:22;1.03;;;1.03;;
20894;SDS011;10607;42.066;24.742;2024-02-14T00:49:47;1.20;;;1.10;;
20894;SDS011;10607;42.066;24.742;2024-02-14T00:52:12;0.70;;;0.70;;
20894;SDS011;10607;42.066;24.742;2024-02-14T00:54:38;0.83;;;0.83;;
20894;SDS011;10607;42.066;24.742;2024-02-14T00:57:03;1.10;;;0.97;;
20894;SDS011;10607;42.066;24.742;2024-02-14T00:59:28;0.73;;;0.70;;
20894;SDS011;10607;42.066;24.742;2024-02-14T01:01:54;1.00;;;0.87;;
20894;SDS011;10607;42.066;24.742;2024-02-14T01:04:19;1.00;;;1.00;;
20894;SDS011;10607;42.066;24.742;2024-02-14T01:06:44;1.60;;;0.80;;
20894;SDS011;10607;42.066;24.742;2024-02-14T01:09:09;1.10;;;1.00;;
20894;SDS011;10607;42.066;24.742;2024-02-14T01:11:34;1.20;;;1.10;;
20894;SDS011;10607;42.066;24.742;2024-02-14T01:14:00;2.17;;;0.80;;
20894;SDS011;10607;42.066;24.742;2024-02-14T01:16:26;1.07;;;1.00;;
20894;SDS011;10607;42.066;24.742;2024-02-14T01:18:52;0.80;;;0.80;;
20894;SDS011;10607;42.066;24.742;2024-02-14T01:21:17;1.70;;;0.83;;
20894;SDS011;10607;42.066;24.742;2024-02-14T01:23:42;0.97;;;0.97;;
20894;SDS011;10607;42.066;24.742;2024-02-14T01:26:08;1.10;;;1.00;;
20894;SDS011;10607;42.066;24.742;2024-02-14T01:28:33;1.17;;;1.07;;
20894;SDS011;10607;42.066;24.742;2024-02-14T01:30:58;1.30;;;1.20;;
20894;SDS011;10607;42.066;24.742;2024-02-14T01:33:24;0.80;;;0.80;;
20894;SDS011;10607;42.066;24.742;2024-02-14T01:35:49;0.90;;;0.90;;
20894;SDS011;10607;42.066;24.742;2024-02-14T01:38:14;0.90;;;0.90;;
20894;SDS011;10607;42.066;24.742;2024-02-14T01:40:42;0.80;;;0.80;;
20894;SDS011;10607;42.066;24.742;2024-02-14T01:43:07;1.03;;;0.97;;
20894;SDS011;10607;42.066;24.742;2024-02-14T01:45:33;0.80;;;0.80;;
20894;SDS011;10607;42.066;24.742;2024-02-14T01:47:59;0.90;;;0.90;;
20894;SDS011;10607;42.066;24.742;2024-02-14T01:50:24;1.27;;;0.90;;
20894;SDS011;10607;42.066;24.742;2024-02-14T01:52:54;1.00;;;0.70;;
20894;SDS011;10607;42.066;24.742;2024-02-14T01:55:21;1.00;;;1.00;;
20894;SDS011;10607;42.066;24.742;2024-02-14T01:57:46;1.20;;;1.10;;
20894;SDS011;10607;42.066;24.742;2024-02-14T02:00:12;0.70;;;0.70;;
20894;SDS011;10607;42.066;24.742;2024-02-14T02:02:43;0.97;;;0.93;;
20894;SDS011;10607;42.066;24.742;2024-02-14T02:05:08;1.50;;;1.07;;
20894;SDS011;10607;42.066;24.742;2024-02-14T02:07:33;0.80;;;0.80;;
20894;SDS011;10607;42.066;24.742;2024-02-14T02:09:59;1.27;;;0.93;;
20894;SDS011;10607;42.066;24.742;2024-02-14T02:12:24;0.80;;;0.80;;
20894;SDS011;10607;42.066;24.742;2024-02-14T02:14:52;1.73;;;0.93;;
20894;SDS011;10607;42.066;24.742;2024-02-14T02:17:17;0.93;;;0.90;;
20894;SDS011;10607;42.066;24.742;2024-02-14T02:19:42;0.90;;;0.90;;
20894;SDS011;10607;42.066;24.742;2024-02-14T02:22:08;1.30;;;1.20;;
20894;SDS011;10607;42.066;24.742;2024-02-14T02:24:33;1.23;;;0.90;;
20894;SDS011;10607;42.066;24.742;2024-02-14T02:26:58;1.20;;;1.20;;
20894;SDS011;10607;42.066;24.742;2024-02-14T02:29:23;1.10;;;1.10;;
20894;SDS011;10607;42.066;24.742;2024-02-14T02:31:49;1.43;;;1.20;;
20894;SDS011;10607;42.066;24.742;2024-02-14T02:34:14;1.33;;;1.00;;
20894;SDS011;10607;42.066;24.742;2024-02-14T02:36:42;1.33;;;1.20;;
20894;SDS011;10607;42.066;24.742;2024-02-14T02:39:08;1.20;;;0.97;;
20894;SDS011;10607;42.066;24.742;2024-02-14T02:41:34;1.43;;;1.33;;
20894;SDS011;10607;42.066;24.742;2024-02-14T02:43:59;1.30;;;1.20;;
20894;SDS011;10607;42.066;24.742;2024-02-14T02:46:26;1.10;;;1.10;;
20894;SDS011;10607;42.066;24.742;2024-02-14T02:48:52;1.33;;;1.23;;
20894;SDS011;10607;42.066;24.742;2024-02-14T02:51:20;1.10;;;1.00;;
20894;SDS011;10607;42.066;24.742;2024-02-14T02:53:45;1.13;;;1.10;;
20894;SDS011;10607;42.066;24.742;2024-02-14T02:56:10;1.83;;;1.10;;
20894;SDS011;10607;42.066;24.742;2024-02-14T02:58:37;1.10;;;1.00;;
20894;SDS011;10607;42.066;24.742;2024-02-14T03:01:02;1.53;;;1.43;;
20894;SDS011;10607;42.066;24.742;2024-02-14T03:03:31;1.27;;;1.07;;
20894;SDS011;10607;42.066;24.742;2024-02-14T03:05:58;1.23;;;1.13;;
20894;SDS011;10607;42.066;24.742;2024-02-14T03:08:24;2.33;;;1.47;;
20894;SDS011;10607;42.066;24.742;2024-02-14T03:10:50;2.30;;;1.53;;
20894;SDS011;10607;42.066;24.742;2024-02-14T03:13:16;1.53;;;1.43;;
20894;SDS011;10607;42.066;24.742;2024-02-14T03:15:42;1.37;;;1.27;;
20894;SDS011;10607;42.066;24.742;2024-02-14T03:18:08;1.90;;;1.80;;
20894;SDS011;10607;42.066;24.742;2024-02-14T03:20:35;1.67;;;1.50;;
20894;SDS011;10607;42.066;24.742;2024-02-14T03:23:00;1.70;;;1.60;;
20894;SDS011;10607;42.066;24.742;2024-02-14T03:25:25;1.90;;;1.77;;
20894;SDS011;10607;42.066;24.742;2024-02-14T03:27:51;1.57;;;1.40;;
20894;SDS011;10607;42.066;24.742;2024-02-14T03:30:18;1.43;;;1.33;;
20894;SDS011;10607;42.066;24.742;2024-02-14T03:32:43;2.20;;;2.00;;
20894;SDS011;10607;42.066;24.742;2024-02-14T03:35:09;1.60;;;1.50;;
20894;SDS011;10607;42.066;24.742;2024-02-14T03:37:36;2.30;;;1.93;;
20894;SDS011;10607;42.066;24.742;2024-02-14T03:40:02;2.07;;;1.87;;
20894;SDS011;10607;42.066;24.742;2024-02-14T03:42:29;3.60;;;1.97;;
20894;SDS011;10607;42.066;24.742;2024-02-14T03:44:54;2.03;;;1.77;;
20894;SDS011;10607;42.066;24.742;2024-02-14T03:47:27;1.73;;;1.63;;
20894;SDS011;10607;42.066;24.742;2024-02-14T03:49:52;2.17;;;1.83;;
20894;SDS011;10607;42.066;24.742;2024-02-14T03:52:17;2.13;;;1.90;;
20894;SDS011;10607;42.066;24.742;2024-02-14T03:54:43;2.60;;;1.70;;
20894;SDS011;10607;42.066;24.742;2024-02-14T03:57:08;2.37;;;2.17;;
20894;SDS011;10607;42.066;24.742;2024-02-14T03:59:37;3.17;;;2.27;;
20894;SDS011;10607;42.066;24.742;2024-02-14T04:02:03;1.87;;;1.70;;
20894;SDS011;10607;42.066;24.742;2024-02-14T04:04:29;2.40;;;1.97;;
20894;SDS011;10607;42.066;24.742;2024-02-14T04:06:54;2.00;;;1.90;;
20894;SDS011;10607;42.066;24.742;2024-02-14T04:09:19;2.07;;;1.90;;
20894;SDS011;10607;42.066;24.742;2024-02-14T04:11:44;2.67;;;2.27;;
20894;SDS011;10607;42.066;24.742;2024-02-14T04:14:10;2.93;;;2.40;;
20894;SDS011;10607;42.066;24.742;2024-02-14T04:16:35;2.53;;;2.33;;
20894;SDS011;10607;42.066;24.742;2024-02-14T04:19:01;2.33;;;2.13;;
20894;SDS011;10607;42.066;24.742;2024-02-14T04:21:26;2.23;;;1.93;;
20894;SDS011;10607;42.066;24.742;2024-02-14T04:23:52;2.63;;;2.43;;
20894;SDS011;10607;42.066;24.742;2024-02-14T04:26:20;4.03;;;2.30;;
20894;SDS011;10607;42.066;24.742;2024-02-14T04:28:46;3.10;;;2.63;;
20894;SDS011;10607;42.066;24.742;2024-02-14T04:31:11;2.53;;;2.33;;
20894;SDS011;10607;42.066;24.742;2024-02-14T04:33:36;3.37;;;2.40;;
20894;SDS011;10607;42.066;24.742;2024-02-14T04:36:02;3.13;;;2.47;;
20894;SDS011;10607;42.066;24.742;2024-02-14T04:38:27;2.53;;;2.33;;
20894;SDS011;10607;42.066;24.742;2024-02-14T04:40:54;4.30;;;1.87;;
20894;SDS011;10607;42.066;24.742;2024-02-14T04:43:21;2.30;;;2.10;;
20894;SDS011;10607;42.066;24.742;2024-02-14T04:45:46;3.30;;;2.03;;
20894;SDS011;10607;42.066;24.742;2024-02-14T04:48:13;3.03;;;2.47;;
20894;SDS011;10607;42.066;24.742;2024-02-14T04:50:38;3.03;;;2.60;;
20894;SDS011;10607;42.066;24.742;2024-02-14T04:53:03;2.30;;;2.10;;
20894;SDS011;10607;42.066;24.742;2024-02-14T04:55:28;3.23;;;2.50;;
20894;SDS011;10607;42.066;24.742;2024-02-14T04:57:54;3.13;;;2.50;;
20894;SDS011;10607;42.066;24.742;2024-02-14T05:00:19;3.67;;;2.00;;
20894;SDS011;10607;42.066;24.742;2024-02-14T05:02:45;2.40;;;2.20;;
20894;SDS011;10607;42.066;24.742;2024-02-14T05:05:10;2.80;;;2.47;;
20894;SDS011;10607;42.066;24.742;2024-02-14T05:07:35;2.80;;;2.50;;
20894;SDS011;10607;42.066;24.742;2024-02-14T05:10:00;2.80;;;2.60;;
20894;SDS011;10607;42.066;24.742;2024-02-14T05:12:26;2.57;;;2.20;;
20894;SDS011;10607;42.066;24.742;2024-02-14T05:14:51;4.40;;;2.40;;
20894;SDS011;10607;42.066;24.742;2024-02-14T05:17:16;3.33;;;2.57;;
20894;SDS011;10607;42.066;24.742;2024-02-14T05:19:42;2.97;;;2.30;;
20894;SDS011;10607;42.066;24.742;2024-02-14T05:22:08;3.97;;;2.30;;
20894;SDS011;10607;42.066;24.742;2024-02-14T05:24:33;2.90;;;2.40;;
20894;SDS011;10607;42.066;24.742;2024-02-14T05:27:00;3.57;;;2.40;;
20894;SDS011;10607;42.066;24.742;2024-02-14T05:29:25;3.50;;;2.83;;
20894;SDS011;10607;42.066;24.742;2024-02-14T05:31:51;4.53;;;2.60;;
20894;SDS011;10607;42.066;24.742;2024-02-14T05:34:20;3.93;;;3.10;;
20894;SDS011;10607;42.066;24.742;2024-02-14T05:36:45;3.47;;;2.47;;
20894;SDS011;10607;42.066;24.742;2024-02-14T05:39:10;2.90;;;2.60;;
20894;SDS011;10607;42.066;24.742;2024-02-14T05:41:36;3.03;;;2.60;;
20894;SDS011;10607;42.066;24.742;2024-02-14T05:44:01;2.70;;;2.50;;
20894;SDS011;10607;42.066;24.742;2024-02-14T05:46:27;2.67;;;2.47;;
20894;SDS011;10607;42.066;24.742;2024-02-14T05:48:52;4.47;;;3.00;;
20894;SDS011;10607;42.066;24.742;2024-02-14T05:51:18;3.13;;;2.53;;
20894;SDS011;10607;42.066;24.742;2024-02-14T05:53:43;2.60;;;2.40;;
20894;SDS011;10607;42.066;24.742;2024-02-14T05:56:08;2.97;;;2.63;;
20894;SDS011;10607;42.066;24.742;2024-02-14T05:58:34;2.83;;;2.53;;
20894;SDS011;10607;42.066;24.742;2024-02-14T06:00:59;2.50;;;2.30;;
20894;SDS011;10607;42.066;24.742;2024-02-14T06:03:24;3.20;;;2.70;;
20894;SDS011;10607;42.066;24.742;2024-02-14T06:05:49;3.30;;;2.80;;
20894;SDS011;10607;42.066;24.742;2024-02-14T06:08:14;3.30;;;3.00;;
20894;SDS011;10607;42.066;24.742;2024-02-14T06:10:40;2.70;;;2.50;;
20894;SDS011;10607;42.066;24.742;2024-02-14T06:13:05;3.30;;;3.00;;
20894;SDS011;10607;42.066;24.742;2024-02-14T06:15:30;5.20;;;3.03;;
20894;SDS011;10607;42.066;24.742;2024-02-14T06:17:56;3.37;;;2.80;;
20894;SDS011;10607;42.066;24.742;2024-02-14T06:20:21;3.97;;;2.93;;
20894;SDS011;10607;42.066;24.742;2024-02-14T06:22:46;3.40;;;2.50;;
20894;SDS011;10607;42.066;24.742;2024-02-14T06:25:11;3.40;;;2.53;;
20894;SDS011;10607;42.066;24.742;2024-02-14T06:27:36;3.13;;;2.57;;
20894;SDS011;10607;42.066;24.742;2024-02-14T06:30:02;3.33;;;2.57;;
20894;SDS011;10607;42.066;24.742;2024-02-14T06:32:27;3.43;;;3.00;;
20894;SDS011;10607;42.066;24.742;2024-02-14T06:34:53;3.53;;;2.70;;
20894;SDS011;10607;42.066;24.742;2024-02-14T06:37:18;2.87;;;2.57;;
20894;SDS011;10607;42.066;24.742;2024-02-14T06:39:43;4.83;;;3.60;;
20894;SDS011;10607;42.066;24.742;2024-02-14T06:42:08;5.57;;;3.00;;
20894;SDS011;10607;42.066;24.742;2024-02-14T06:44:34;2.87;;;2.63;;
20894;SDS011;10607;42.066;24.742;2024-02-14T06:46:59;3.00;;;2.53;;
20894;SDS011;10607;42.066;24.742;2024-02-14T06:49:24;4.97;;;3.20;;
20894;SDS011;10607;42.066;24.742;2024-02-14T06:51:49;4.23;;;2.87;;
20894;SDS011;10607;42.066;24.742;2024-02-14T06:54:14;3.53;;;3.13;;
20894;SDS011;10607;42.066;24.742;2024-02-14T06:56:42;4.20;;;3.23;;
20894;SDS011;10607;42.066;24.742;2024-02-14T06:59:07;6.90;;;3.87;;
20894;SDS011;10607;42.066;24.742;2024-02-14T07:01:32;4.47;;;3.27;;
20894;SDS011;10607;42.066;24.742;2024-02-14T07:03:58;4.27;;;3.27;;
20894;SDS011;10607;42.066;24.742;2024-02-14T07:06:23;3.87;;;3.17;;
20894;SDS011;10607;42.066;24.742;2024-02-14T07:08:48;3.73;;;3.23;;
20894;SDS011;10607;42.066;24.742;2024-02-14T07:11:14;3.57;;;2.90;;
20894;SDS011;10607;42.066;24.742;2024-02-14T07:13:40;4.23;;;3.57;;
20894;SDS011;10607;42.066;24.742;2024-02-14T07:16:05;5.03;;;2.97;;
20894;SDS011;10607;42.066;24.742;2024-02-14T07:18:31;3.60;;;2.90;;
20894;SDS011;10607;42.066;24.742;2024-02-14T07:20:56;5.40;;;3.20;;
20894;SDS011;10607;42.066;24.742;2024-02-14T07:23:21;3.73;;;3.30;;
20894;SDS011;10607;42.066;24.742;2024-02-14T07:25:46;5.60;;;3.70;;
20894;SDS011;10607;42.066;24.742;2024-02-14T07:28:12;6.37;;;3.47;;
20894;SDS011;10607;42.066;24.742;2024-02-14T07:30:37;3.70;;;3.40;;
20894;SDS011;10607;42.066;24.742;2024-02-14T07:33:02;4.10;;;3.60;;
20894;SDS011;10607;42.066;24.742;2024-02-14T07:35:28;7.37;;;3.60;;
20894;SDS011;10607;42.066;24.742;2024-02-14T07:37:54;4.43;;;3.60;;
20894;SDS011;10607;42.066;24.742;2024-02-14T07:40:19;6.80;;;3.50;;
20894;SDS011;10607;42.066;24.742;2024-02-14T07:42:44;4.80;;;3.73;;
20894;SDS011;10607;42.066;24.742;2024-02-14T07:45:09;3.87;;;3.27;;
20894;SDS011;10607;42.066;24.742;2024-02-14T07:47:35;6.63;;;3.73;;
20894;SDS011;10607;42.066;24.742;2024-02-14T07:50:00;4.90;;;4.30;;
20894;SDS011;10607;42.066;24.742;2024-02-14T07:52:25;5.20;;;3.87;;
20894;SDS011;10607;42.066;24.742;2024-02-14T07:54:53;8.33;;;4.43;;
20894;SDS011;10607;42.066;24.742;2024-02-14T07:57:20;5.33;;;4.27;;
20894;SDS011;10607;42.066;24.742;2024-02-14T07:59:45;5.20;;;4.30;;
20894;SDS011;10607;42.066;24.742;2024-02-14T08:02:10;5.73;;;4.37;;
20894;SDS011;10607;42.066;24.742;2024-02-14T08:04:35;5.30;;;4.13;;
20894;SDS011;10607;42.066;24.742;2024-02-14T08:07:00;5.07;;;4.57;;
20894;SDS011;10607;42.066;24.742;2024-02-14T08:09:26;5.27;;;4.10;;
20894;SDS011;10607;42.066;24.742;2024-02-14T08:11:51;7.33;;;5.07;;
20894;SDS011;10607;42.066;24.742;2024-02-14T08:14:18;6.37;;;5.40;;
20894;SDS011;10607;42.066;24.742;2024-02-14T08:16:43;5.83;;;4.43;;
20894;SDS011;10607;42.066;24.742;2024-02-14T08:19:08;6.47;;;4.80;;
20894;SDS011;10607;42.066;24.742;2024-02-14T08:21:33;4.80;;;4.20;;
20894;SDS011;10607;42.066;24.742;2024-02-14T08:23:59;7.67;;;4.70;;
20894;SDS011;10607;42.066;24.742;2024-02-14T08:26:24;7.37;;;5.10;;
20894;SDS011;10607;42.066;24.742;2024-02-14T08:28:49;6.63;;;5.10;;
20894;SDS011;10607;42.066;24.742;2024-02-14T08:31:15;7.30;;;5.40;;
20894;SDS011;10607;42.066;24.742;2024-02-14T08:33:40;6.30;;;5.03;;
20894;SDS011;10607;42.066;24.742;2024-02-14T08:36:05;6.07;;;4.90;;
20894;SDS011;10607;42.066;24.742;2024-02-14T08:38:32;7.57;;;5.53;;
20894;SDS011;10607;42.066;24.742;2024-02-14T08:40:58;7.47;;;5.17;;
20894;SDS011;10607;42.066;24.742;2024-02-14T08:43:23;6.53;;;5.03;;
20894;SDS011;10607;42.066;24.742;2024-02-14T08:45:50;7.00;;;5.10;;
20894;SDS011;10607;42.066;24.742;2024-02-14T08:48:16;6.90;;;5.10;;
20894;SDS011;10607;42.066;24.742;2024-02-14T08:50:42;7.67;;;5.50;;
20894;SDS011;10607;42.066;24.742;2024-02-14T08:53:07;6.20;;;5.53;;
20894;SDS011;10607;42.066;24.742;2024-02-14T08:55:32;7.17;;;5.30;;
20894;SDS011;10607;42.066;24.742;2024-02-14T08:57:58;7.70;;;5.43;;
20894;SDS011;10607;42.066;24.742;2024-02-14T09:00:23;9.53;;;5.27;;
20894;SDS011;10607;42.066;24.742;2024-02-14T09:02:48;8.77;;;5.50;;
20894;SDS011;10607;42.066;24.742;2024-02-14T09:05:14;12.53;;;6.70;;
20894;SDS011;10607;42.066;24.742;2024-02-14T09:07:39;8.77;;;6.07;;
20894;SDS011;10607;42.066;24.742;2024-02-14T09:10:06;10.20;;;6.23;;
20894;SDS011;10607;42.066;24.742;2024-02-14T09:12:32;7.97;;;6.20;;
20894;SDS011;10607;42.066;24.742;2024-02-14T09:14:57;6.63;;;5.03;;
20894;SDS011;10607;42.066;24.742;2024-02-14T09:17:22;9.80;;;6.10;;
20894;SDS011;10607;42.066;24.742;2024-02-14T09:19:48;9.03;;;5.77;;
20894;SDS011;10607;42.066;24.742;2024-02-14T09:22:13;7.70;;;5.70;;
20894;SDS011;10607;42.066;24.742;2024-02-14T09:24:43;11.80;;;6.47;;
20894;SDS011;10607;42.066;24.742;2024-02-14T09:27:08;8.73;;;6.67;;
20894;SDS011;10607;42.066;24.742;2024-02-14T09:29:34;9.50;;;5.70;;
20894;SDS011;10607;42.066;24.742;2024-02-14T09:32:01;9.80;;;5.90;;
20894;SDS011;10607;42.066;24.742;2024-02-14T09:34:26;8.10;;;7.03;;
20894;SDS011;10607;42.066;24.742;2024-02-14T09:36:52;8.13;;;6.20;;
20894;SDS011;10607;42.066;24.742;2024-02-14T09:39:18;7.80;;;6.73;;
20894;SDS011;10607;42.066;24.742;2024-02-14T09:41:44;11.40;;;6.30;;
20894;SDS011;10607;42.066;24.742;2024-02-14T09:44:12;9.60;;;6.03;;
20894;SDS011;10607;42.066;24.742;2024-02-14T09:46:37;8.70;;;6.90;;
20894;SDS011;10607;42.066;24.742;2024-02-14T09:49:03;8.60;;;6.70;;
20894;SDS011;10607;42.066;24.742;2024-02-14T09:51:28;8.50;;;6.80;;
20894;SDS011;10607;42.066;24.742;2024-02-14T09:53:54;9.80;;;7.03;;
20894;SDS011;10607;42.066;24.742;2024-02-14T09:56:20;12.00;;;6.90;;
20894;SDS011;10607;42.066;24.742;2024-02-14T09:58:47;10.73;;;7.03;;
20894;SDS011;10607;42.066;24.742;2024-02-14T10:01:20;7.83;;;6.27;;
20894;SDS011;10607;42.066;24.742;2024-02-14T10:03:52;7.93;;;6.80;;
20894;SDS011;10607;42.066;24.742;2024-02-14T10:06:17;9.17;;;6.53;;
20894;SDS011;10607;42.066;24.742;2024-02-14T10:08:44;8.57;;;6.93;;
20894;SDS011;10607;42.066;24.742;2024-02-14T10:11:09;9.27;;;6.33;;
20894;SDS011;10607;42.066;24.742;2024-02-14T10:13:36;9.13;;;6.53;;
20894;SDS011;10607;42.066;24.742;2024-02-14T10:16:01;11.07;;;6.57;;
20894;SDS011;10607;42.066;24.742;2024-02-14T10:18:26;11.37;;;7.17;;
20894;SDS011;10607;42.066;24.742;2024-02-14T10:20:55;8.40;;;6.83;;
20894;SDS011;10607;42.066;24.742;2024-02-14T10:23:20;10.90;;;7.10;;
20894;SDS011;10607;42.066;24.742;2024-02-14T10:25:47;9.70;;;7.70;;
20894;SDS011;10607;42.066;24.742;2024-02-14T10:28:12;10.40;;;7.83;;
20894;SDS011;10607;42.066;24.742;2024-02-14T10:30:37;10.93;;;7.87;;
20894;SDS011;10607;42.066;24.742;2024-02-14T10:33:07;11.40;;;8.40;;
20894;SDS011;10607;42.066;24.742;2024-02-14T10:35:33;10.17;;;7.03;;
20894;SDS011;10607;42.066;24.742;2024-02-14T10:37:59;8.97;;;7.67;;
20894;SDS011;10607;42.066;24.742;2024-02-14T10:40:31;10.83;;;8.20;;
20894;SDS011;10607;42.066;24.742;2024-02-14T10:42:57;7.90;;;6.90;;
20894;SDS011;10607;42.066;24.742;2024-02-14T10:45:23;8.63;;;7.33;;
20894;SDS011;10607;42.066;24.742;2024-02-14T10:47:48;8.07;;;7.00;;
20894;SDS011;10607;42.066;24.742;2024-02-14T10:50:16;8.93;;;6.90;;
20894;SDS011;10607;42.066;24.742;2024-02-14T10:52:42;11.13;;;7.47;;
20894;SDS011;10607;42.066;24.742;2024-02-14T10:55:09;10.80;;;8.13;;
20894;SDS011;10607;42.066;24.742;2024-02-14T10:57:37;9.70;;;7.40;;
20894;SDS011;10607;42.066;24.742;2024-02-14T11:00:04;11.30;;;7.13;;
20894;SDS011;10607;42.066;24.742;2024-02-14T11:02:32;9.33;;;7.47;;
20894;SDS011;10607;42.066;24.742;2024-02-14T11:04:58;8.50;;;7.47;;
20894;SDS011;10607;42.066;24.742;2024-02-14T11:07:23;9.93;;;7.77;;
20894;SDS011;10607;42.066;24.742;2024-02-14T11:09:48;8.80;;;6.97;;
20894;SDS011;10607;42.066;24.742;2024-02-14T11:12:25;10.07;;;7.83;;
20894;SDS011;10607;42.066;24.742;2024-02-14T11:14:50;8.50;;;7.10;;
20894;SDS011;10607;42.066;24.742;2024-02-14T11:17:18;11.17;;;6.83;;
20894;SDS011;10607;42.066;24.742;2024-02-14T11:19:49;9.77;;;7.73;;
20894;SDS011;10607;42.066;24.742;2024-02-14T11:22:20;9.10;;;6.70;;
20894;SDS011;10607;42.066;24.742;2024-02-14T11:24:45;7.47;;;5.97;;
20894;SDS011;10607;42.066;24.742;2024-02-14T11:27:10;8.43;;;5.90;;
20894;SDS011;10607;42.066;24.742;2024-02-14T11:29:50;8.43;;;6.07;;
20894;SDS011;10607;42.066;24.742;2024-02-14T11:32:16;9.03;;;6.10;;
20894;SDS011;10607;42.066;24.742;2024-02-14T11:34:43;7.80;;;6.20;;
20894;SDS011;10607;42.066;24.742;2024-02-14T11:37:09;7.63;;;6.23;;
20894;SDS011;10607;42.066;24.742;2024-02-14T11:39:34;8.73;;;6.33;;
20894;SDS011;10607;42.066;24.742;2024-02-14T11:42:00;10.80;;;6.83;;
20894;SDS011;10607;42.066;24.742;2024-02-14T11:44:25;7.90;;;5.97;;
20894;SDS011;10607;42.066;24.742;2024-02-14T11:46:51;7.90;;;6.40;;
20894;SDS011;10607;42.066;24.742;2024-02-14T11:49:16;7.83;;;5.70;;
20894;SDS011;10607;42.066;24.742;2024-02-14T11:51:42;7.90;;;6.43;;
20894;SDS011;10607;42.066;24.742;2024-02-14T11:54:07;7.20;;;6.00;;
20894;SDS011;10607;42.066;24.742;2024-02-14T11:56:33;8.23;;;6.20;;
20894;SDS011;10607;42.066;24.742;2024-02-14T11:59:02;9.60;;;6.27;;
20894;SDS011;10607;42.066;24.742;2024-02-14T12:01:30;8.23;;;5.90;;
20894;SDS011;10607;42.066;24.742;2024-02-14T12:03:57;10.43;;;6.27;;
20894;SDS011;10607;42.066;24.742;2024-02-14T12:06:22;7.77;;;5.73;;
20894;SDS011;10607;42.066;24.742;2024-02-14T12:08:47;8.13;;;6.33;;
20894;SDS011;10607;42.066;24.742;2024-02-14T12:11:13;7.33;;;5.47;;
20894;SDS011;10607;42.066;24.742;2024-02-14T12:13:38;9.87;;;6.33;;
20894;SDS011;10607;42.066;24.742;2024-02-14T12:16:08;7.53;;;6.37;;
20894;SDS011;10607;42.066;24.742;2024-02-14T12:18:33;12.43;;;6.37;;
20894;SDS011;10607;42.066;24.742;2024-02-14T12:21:05;9.43;;;5.80;;
20894;SDS011;10607;42.066;24.742;2024-02-14T12:23:34;7.13;;;6.00;;
20894;SDS011;10607;42.066;24.742;2024-02-14T12:26:02;8.83;;;7.03;;
20894;SDS011;10607;42.066;24.742;2024-02-14T12:28:28;7.97;;;5.83;;
20894;SDS011;10607;42.066;24.742;2024-02-14T12:30:55;7.27;;;5.97;;
20894;SDS011;10607;42.066;24.742;2024-02-14T12:33:26;8.10;;;5.57;;
20894;SDS011;10607;42.066;24.742;2024-02-14T12:35:55;8.23;;;5.57;;
20894;SDS011;10607;42.066;24.742;2024-02-14T12:38:22;6.27;;;5.37;;
20894;SDS011;10607;42.066;24.742;2024-02-14T12:40:50;5.87;;;5.13;;
20894;SDS011;10607;42.066;24.742;2024-02-14T12:43:18;6.60;;;4.87;;
20894;SDS011;10607;42.066;24.742;2024-02-14T12:45:43;7.57;;;5.60;;
20894;SDS011;10607;42.066;24.742;2024-02-14T12:48:09;5.77;;;5.10;;
20894;SDS011;10607;42.066;24.742;2024-02-14T12:50:35;7.77;;;5.73;;
20894;SDS011;10607;42.066;24.742;2024-02-14T12:53:00;8.63;;;5.53;;
20894;SDS011;10607;42.066;24.742;2024-02-14T12:55:26;6.23;;;5.53;;
20894;SDS011;10607;42.066;24.742;2024-02-14T12:57:53;12.83;;;5.57;;
20894;SDS011;10607;42.066;24.742;2024-02-14T13:00:19;11.20;;;5.90;;
20894;SDS011;10607;42.066;24.742;2024-02-14T13:02:44;7.50;;;5.10;;
20894;SDS011;10607;42.066;24.742;2024-02-14T13:05:09;6.13;;;5.23;;
20894;SDS011;10607;42.066;24.742;2024-02-14T13:07:34;13.57;;;5.47;;
20894;SDS011;10607;42.066;24.742;2024-02-14T13:10:00;10.43;;;5.73;;
20894;SDS011;10607;42.066;24.742;2024-02-14T13:12:25;6.30;;;4.60;;
20894;SDS011;10607;42.066;24.742;2024-02-14T13:14:51;7.37;;;5.20;;
20894;SDS011;10607;42.066;24.742;2024-02-14T13:17:16;5.60;;;4.70;;
20894;SDS011;10607;42.066;24.742;2024-02-14T13:19:41;6.60;;;4.77;;
20894;SDS011;10607;42.066;24.742;2024-02-14T13:22:08;7.53;;;5.20;;
20894;SDS011;10607;42.066;24.742;2024-02-14T13:24:33;9.93;;;5.33;;
20894;SDS011;10607;42.066;24.742;2024-02-14T13:26:58;10.20;;;4.90;;
20894;SDS011;10607;42.066;24.742;2024-02-14T13:29:23;10.17;;;4.73;;
20894;SDS011;10607;42.066;24.742;2024-02-14T13:31:52;6.30;;;4.93;;
20894;SDS011;10607;42.066;24.742;2024-02-14T13:34:17;5.40;;;4.20;;
20894;SDS011;10607;42.066;24.742;2024-02-14T13:36:46;5.23;;;4.70;;
20894;SDS011;10607;42.066;24.742;2024-02-14T13:39:11;7.20;;;4.60;;
20894;SDS011;10607;42.066;24.742;2024-02-14T13:41:37;6.63;;;4.67;;
20894;SDS011;10607;42.066;24.742;2024-02-14T13:44:03;8.90;;;4.87;;
20894;SDS011;10607;42.066;24.742;2024-02-14T13:46:29;6.77;;;4.40;;
20894;SDS011;10607;42.066;24.742;2024-02-14T13:48:54;8.33;;;4.50;;
20894;SDS011;10607;42.066;24.742;2024-02-14T13:51:19;6.37;;;4.97;;
20894;SDS011;10607;42.066;24.742;2024-02-14T13:53:45;7.03;;;4.10;;
20894;SDS011;10607;42.066;24.742;2024-02-14T13:56:10;8.87;;;4.50;;
20894;SDS011;10607;42.066;24.742;2024-02-14T13:58:36;6.90;;;4.73;;
20894;SDS011;10607;42.066;24.742;2024-02-14T14:01:03;8.00;;;4.87;;
20894;SDS011;10607;42.066;24.742;2024-02-14T14:03:29;10.97;;;4.10;;
20894;SDS011;10607;42.066;24.742;2024-02-14T14:05:55;5.57;;;4.17;;
20894;SDS011;10607;42.066;24.742;2024-02-14T14:08:22;9.43;;;4.93;;
20894;SDS011;10607;42.066;24.742;2024-02-14T14:10:47;5.17;;;4.33;;
20894;SDS011;10607;42.066;24.742;2024-02-14T14:13:12;5.10;;;4.53;;
20894;SDS011;10607;42.066;24.742;2024-02-14T14:15:38;5.10;;;4.33;;
20894;SDS011;10607;42.066;24.742;2024-02-14T14:18:04;6.20;;;4.53;;
20894;SDS011;10607;42.066;24.742;2024-02-14T14:20:29;6.23;;;4.20;;
20894;SDS011;10607;42.066;24.742;2024-02-14T14:22:54;5.27;;;4.20;;
20894;SDS011;10607;42.066;24.742;2024-02-14T14:25:20;5.53;;;3.93;;